aviador You're here:

KHSE Decoded Metar

HATTERAS/MITCHEL in NC, USA
Report Time2017-03-23 23:51:00
UTC Time2017-03-24 00:07:08
Flight Rules vfr VFR
Wind040° at 07 kt
W.Decomp.*RWY 07: 6.6 kt HW 2.4 kt LCW
W.Rank040° ranks 2
Current wind is below 040° avg. (7.8)
Visibility9999 m
Phenomena:N/A
Clouds:N/A
Expected CloudBase > 2,800 ft AGL from Temp-Dew spread
CeilingNone
Temp05°C (ISA -10)
Dew Point-2°C (61% RH)
AAT0.2°C
QNH1035 hPa
Density Alt-1,867 ft
Elevation10 ft
Report Wrong Elevation
Raw Report
METAR KHSE 232351Z AUTO 04007KT 9SM CLR 05/M02 A3057 RMK AO2 SLP352
T00501017 10089 20044 58002 TSNO=

Extra information for KHSE:More info

Metar Taf Metar & Taf Last 4 Metars F.Rules Stats Wind Profile Meteogram Temp Stats Airport Information Weather charts Add Link Nearby VenuesMetar ALERT Operation Metar Decoded Social comments

AIRNAV info for KHSE